createdAt,value
2022-12-27T00:00:14.241Z,4.68
2022-12-27T00:02:46.457Z,4.40
2022-12-27T00:05:16.505Z,4.30
2022-12-27T00:07:46.310Z,4.07
2022-12-27T00:10:15.891Z,4.22
2022-12-27T00:12:45.490Z,3.90
2022-12-27T00:15:15.084Z,4.45
2022-12-27T00:17:47.244Z,4.47
2022-12-27T00:20:16.829Z,3.88
2022-12-27T00:22:46.752Z,4.45
2022-12-27T00:25:16.399Z,4.10
2022-12-27T00:27:45.972Z,3.88
2022-12-27T00:30:16.353Z,4.03
2022-12-27T00:32:48.523Z,3.55
2022-12-27T00:35:18.153Z,3.97
2022-12-27T00:37:47.810Z,4.10
2022-12-27T00:40:17.411Z,3.65
2022-12-27T00:42:47.005Z,3.80
2022-12-27T00:45:16.583Z,4.03
2022-12-27T00:47:48.775Z,4.07
2022-12-27T00:50:18.743Z,3.78
2022-12-27T00:52:48.321Z,3.58
2022-12-27T00:55:17.975Z,3.85
2022-12-27T00:57:47.684Z,4.13
2022-12-27T01:00:18.720Z,4.20
2022-12-27T01:02:50.890Z,3.80
2022-12-27T01:05:21.976Z,3.97
2022-12-27T01:07:51.573Z,3.88
2022-12-27T01:10:21.401Z,4.35
2022-12-27T01:12:51.057Z,3.83
2022-12-27T01:15:20.711Z,3.58
2022-12-27T01:17:52.846Z,3.85
2022-12-27T01:20:22.536Z,3.90
2022-12-27T01:22:52.306Z,4.10
2022-12-27T01:25:21.913Z,3.85
2022-12-27T01:27:51.547Z,4.20
2022-12-27T01:30:21.306Z,4.30
2022-12-27T01:32:53.466Z,3.63
2022-12-27T01:35:23.089Z,4.25
2022-12-27T01:37:53.319Z,3.88
2022-12-27T01:40:22.860Z,4.00
2022-12-27T01:42:52.462Z,3.58
2022-12-27T01:45:23.219Z,3.45
2022-12-27T01:47:58.227Z,3.60
2022-12-27T01:50:32.306Z,4.10
2022-12-27T01:53:06.644Z,3.53
2022-12-27T01:55:39.843Z,3.50
2022-12-27T01:58:20.611Z,3.33
2022-12-27T02:00:51.897Z,3.63
2022-12-27T02:03:28.136Z,3.42
2022-12-27T02:05:58.318Z,3.63
2022-12-27T02:08:42.885Z,3.70
2022-12-27T02:11:13.709Z,3.28
2022-12-27T02:13:45.630Z,4.55
2022-12-27T02:16:17.811Z,3.33
2022-12-27T02:18:50.248Z,3.40
2022-12-27T02:21:39.590Z,3.70
2022-12-27T02:24:22.753Z,3.40
2022-12-27T02:26:54.986Z,3.88
2022-12-27T02:29:50.521Z,3.60
2022-12-27T02:32:23.953Z,3.40
2022-12-27T02:35:00.501Z,3.63
2022-12-27T02:37:32.761Z,3.63
2022-12-27T02:40:23.251Z,3.33
2022-12-27T02:43:05.567Z,3.50
2022-12-27T02:45:54.322Z,3.65
2022-12-27T02:48:36.371Z,4.00
2022-12-27T02:51:41.243Z,3.90
2022-12-27T02:54:22.862Z,3.72
2022-12-27T02:57:14.138Z,3.72
2022-12-27T03:00:21.135Z,4.32
2022-12-27T03:03:29.005Z,4.60
2022-12-27T03:06:32.919Z,4.53
2022-12-27T03:09:09.468Z,3.90
2022-12-27T03:11:59.729Z,4.20
2022-12-27T03:14:44.425Z,4.22
2022-12-27T03:17:20.418Z,4.30
2022-12-27T03:20:07.436Z,4.30
2022-12-27T03:22:51.883Z,4.68
2022-12-27T03:25:31.208Z,4.07
2022-12-27T03:28:16.112Z,4.03
2022-12-27T03:31:04.022Z,3.60
2022-12-27T03:33:35.214Z,3.63
2022-12-27T03:36:24.348Z,3.95
2022-12-27T03:38:58.352Z,3.70
2022-12-27T03:41:45.450Z,4.15
2022-12-27T03:44:26.791Z,4.07
2022-12-27T03:46:56.267Z,3.60
2022-12-27T03:49:30.882Z,3.70
2022-12-27T03:52:07.213Z,4.00
2022-12-27T03:54:38.314Z,4.20
2022-12-27T03:57:10.441Z,3.80
2022-12-27T03:59:40.114Z,4.07
2022-12-27T04:02:10.403Z,4.07
2022-12-27T04:04:40.625Z,4.30
2022-12-27T04:07:13.952Z,4.03
2022-12-27T04:09:56.993Z,4.23
2022-12-27T04:12:39.291Z,4.00
2022-12-27T04:15:22.037Z,4.78
2022-12-27T04:18:04.094Z,3.92
2022-12-27T04:20:46.325Z,3.90
2022-12-27T04:23:30.954Z,4.00
2022-12-27T04:26:13.057Z,4.10
2022-12-27T04:28:57.313Z,3.92
2022-12-27T04:31:39.430Z,4.13
2022-12-27T04:34:21.535Z,4.38
2022-12-27T04:36:51.421Z,4.10
2022-12-27T04:39:23.750Z,4.82
2022-12-27T04:42:05.778Z,7.57
2022-12-27T04:44:47.829Z,4.10
2022-12-27T04:47:32.628Z,3.88
2022-12-27T04:50:14.729Z,3.70
2022-12-27T04:52:57.543Z,3.88
2022-12-27T04:55:31.578Z,3.83
2022-12-27T04:58:01.562Z,3.40
2022-12-27T05:00:45.532Z,3.40
2022-12-27T05:03:18.464Z,4.05
2022-12-27T05:05:49.050Z,3.50
2022-12-27T05:08:31.353Z,3.30
2022-12-27T05:11:16.040Z,3.40
2022-12-27T05:13:58.765Z,3.63
2022-12-27T05:16:28.443Z,3.80
2022-12-27T05:18:58.071Z,3.40
2022-12-27T05:21:28.168Z,3.10
2022-12-27T05:24:10.218Z,3.22
2022-12-27T05:26:42.434Z,3.58
2022-12-27T05:29:12.072Z,3.10
2022-12-27T05:31:41.669Z,3.15
2022-12-27T05:34:11.351Z,3.38
2022-12-27T05:36:40.926Z,3.45
2022-12-27T05:39:10.515Z,3.33
2022-12-27T05:41:42.682Z,3.00
2022-12-27T05:44:12.294Z,3.47
2022-12-27T05:46:42.349Z,4.28
2022-12-27T05:49:11.947Z,2.85
2022-12-27T05:51:41.535Z,3.08
2022-12-27T05:54:11.141Z,3.30
2022-12-27T05:56:43.315Z,2.90
2022-12-27T05:59:12.876Z,3.00
2022-12-27T06:01:42.629Z,2.72
2022-12-27T06:04:12.618Z,3.20
2022-12-27T06:06:42.198Z,3.28
2022-12-27T06:09:12.544Z,2.90
2022-12-27T06:11:44.720Z,3.67
2022-12-27T06:14:14.325Z,3.40
2022-12-27T06:16:43.926Z,3.30
2022-12-27T06:19:13.580Z,3.25
2022-12-27T06:21:45.455Z,2.97
2022-12-27T06:24:15.067Z,3.40
2022-12-27T06:26:47.219Z,3.47
2022-12-27T06:29:16.871Z,2.95
2022-12-27T06:31:46.986Z,3.15
2022-12-27T06:34:16.597Z,2.97
2022-12-27T06:36:50.191Z,4.05
2022-12-27T06:39:20.172Z,3.47
2022-12-27T06:41:55.209Z,3.50
2022-12-27T06:44:25.009Z,3.20
2022-12-27T06:46:54.601Z,3.53
2022-12-27T06:49:25.803Z,3.47
2022-12-27T06:51:59.503Z,3.25
2022-12-27T06:57:01.470Z,3.05
2022-12-27T06:59:31.027Z,3.70
2022-12-27T07:02:00.731Z,4.00
2022-12-27T07:04:30.548Z,3.95
2022-12-27T07:07:00.152Z,6.05
2022-12-27T07:09:30.047Z,5.05
2022-12-27T07:12:02.189Z,4.32
2022-12-27T07:14:31.813Z,3.80
2022-12-27T07:17:01.393Z,3.47
2022-12-27T07:19:31.038Z,3.65
2022-12-27T07:22:00.637Z,3.20
2022-12-27T07:24:32.243Z,3.40
2022-12-27T07:27:05.308Z,3.70
2022-12-27T07:29:35.751Z,3.45
2022-12-27T07:32:08.262Z,3.63
2022-12-27T07:34:37.911Z,3.65
2022-12-27T07:37:07.492Z,3.45
2022-12-27T07:39:37.076Z,4.30
2022-12-27T07:42:09.323Z,4.18
2022-12-27T07:44:40.550Z,3.97
2022-12-27T07:47:10.329Z,4.43
2022-12-27T07:49:39.902Z,4.28
2022-12-27T07:52:09.542Z,3.88
2022-12-27T07:54:39.118Z,4.35
2022-12-27T07:57:11.281Z,6.68
2022-12-27T07:59:40.858Z,5.38
2022-12-27T08:02:12.016Z,4.05
2022-12-27T08:04:41.700Z,4.10
2022-12-27T08:07:15.393Z,4.32
2022-12-27T08:09:47.156Z,4.20
2022-12-27T08:12:19.633Z,4.20
2022-12-27T08:14:49.233Z,4.30
2022-12-27T08:17:21.061Z,3.80
2022-12-27T08:19:50.849Z,4.22
2022-12-27T08:22:20.521Z,3.85
2022-12-27T08:24:50.123Z,3.97
2022-12-27T08:27:27.284Z,4.10
2022-12-27T08:29:57.054Z,3.83
2022-12-27T08:32:26.776Z,3.30
2022-12-27T08:35:06.996Z,3.47
2022-12-27T08:37:46.009Z,3.72
2022-12-27T08:40:15.646Z,3.50
2022-12-27T08:42:47.873Z,3.38
2022-12-27T08:45:17.861Z,3.80
2022-12-27T08:47:47.506Z,3.58
2022-12-27T08:50:17.166Z,6.05
2022-12-27T08:52:46.761Z,5.82
2022-12-27T08:55:16.427Z,3.35
2022-12-27T08:57:48.582Z,3.60
2022-12-27T09:00:19.113Z,4.38
2022-12-27T09:02:48.704Z,3.63
2022-12-27T09:05:19.654Z,3.20
2022-12-27T09:07:49.484Z,3.70
2022-12-27T09:10:20.007Z,3.30
2022-12-27T09:12:52.274Z,4.20
2022-12-27T09:15:21.905Z,3.60
2022-12-27T09:17:51.475Z,4.95
2022-12-27T09:20:21.170Z,3.60
2022-12-27T09:22:51.885Z,4.13
2022-12-27T09:25:21.799Z,3.40
2022-12-27T09:27:54.700Z,3.40
2022-12-27T09:30:24.289Z,4.05
2022-12-27T09:32:53.876Z,3.67
2022-12-27T09:35:23.486Z,4.43
2022-12-27T09:37:53.045Z,3.65
2022-12-27T09:40:23.111Z,3.42
2022-12-27T09:43:12.471Z,2.92
2022-12-27T09:45:49.187Z,3.40
2022-12-27T09:48:26.299Z,4.03
2022-12-27T09:51:02.913Z,3.05
2022-12-27T09:53:40.487Z,3.25
2022-12-27T09:56:11.475Z,3.53
2022-12-27T09:58:48.675Z,4.60
2022-12-27T10:01:23.654Z,3.80
2022-12-27T10:03:54.148Z,3.28
2022-12-27T10:06:53.501Z,3.15
2022-12-27T10:09:32.558Z,3.13
2022-12-27T10:12:06.570Z,3.38
2022-12-27T10:14:51.676Z,3.78
2022-12-27T10:17:30.419Z,3.20
2022-12-27T10:20:07.912Z,3.50
2022-12-27T10:22:40.835Z,3.47
2022-12-27T10:25:15.143Z,4.85
2022-12-27T10:27:45.188Z,3.65
2022-12-27T10:30:20.981Z,3.58
2022-12-27T10:32:51.342Z,3.22
2022-12-27T10:35:24.257Z,4.07
2022-12-27T10:37:54.094Z,3.35
2022-12-27T10:40:31.043Z,4.05
2022-12-27T10:43:06.472Z,3.28
2022-12-27T10:45:42.401Z,3.28
2022-12-27T10:48:19.227Z,2.90
2022-12-27T10:50:51.526Z,3.58
2022-12-27T10:53:38.359Z,3.15
2022-12-27T10:56:16.814Z,2.88
2022-12-27T10:58:54.648Z,3.65
2022-12-27T11:01:32.574Z,3.30
2022-12-27T11:04:20.191Z,4.88
2022-12-27T11:06:51.675Z,3.25
2022-12-27T11:09:33.178Z,3.83
2022-12-27T11:12:23.903Z,3.25
2022-12-27T11:14:58.476Z,3.67
2022-12-27T11:17:32.955Z,3.42
2022-12-27T11:20:22.894Z,3.42
2022-12-27T11:22:54.656Z,3.30
2022-12-27T11:25:24.570Z,3.38
2022-12-27T11:27:56.140Z,3.00
2022-12-27T11:30:28.028Z,3.35
2022-12-27T11:33:00.433Z,2.80
2022-12-27T11:35:30.129Z,2.95
2022-12-27T11:37:59.997Z,3.20
2022-12-27T11:40:34.760Z,2.92
2022-12-27T11:43:09.009Z,2.90
2022-12-27T11:48:21.235Z,2.63
2022-12-27T11:51:00.189Z,2.83
2022-12-27T11:54:11.729Z,3.08
2022-12-27T11:56:42.520Z,2.83
2022-12-27T11:59:42.885Z,3.38
2022-12-27T12:02:30.990Z,3.38
2022-12-27T12:05:23.389Z,2.97
2022-12-27T12:08:04.423Z,2.80
2022-12-27T12:10:41.258Z,3.33
2022-12-27T12:13:30.601Z,2.75
2022-12-27T12:16:26.703Z,2.78
2022-12-27T12:19:07.217Z,3.22
2022-12-27T12:21:43.326Z,3.22
2022-12-27T12:24:56.986Z,3.33
2022-12-27T12:27:38.693Z,2.55
2022-12-27T12:30:27.426Z,3.10
2022-12-27T12:33:10.676Z,3.20
2022-12-27T12:36:06.274Z,2.90
2022-12-27T12:38:41.409Z,2.83
2022-12-27T12:41:23.798Z,4.10
2022-12-27T12:44:23.932Z,4.68
2022-12-27T12:47:00.322Z,5.00
2022-12-27T12:49:46.384Z,2.88
2022-12-27T12:52:29.743Z,2.92
2022-12-27T12:55:30.941Z,2.75
2022-12-27T12:58:13.937Z,2.35
2022-12-27T13:01:05.852Z,2.75
2022-12-27T13:04:03.098Z,2.80
2022-12-27T13:07:20.306Z,2.30
2022-12-27T13:10:31.141Z,2.65
2022-12-27T13:13:09.618Z,2.55
2022-12-27T13:15:50.770Z,3.03
2022-12-27T13:18:30.177Z,2.83
2022-12-27T13:21:11.896Z,3.00
2022-12-27T13:23:49.474Z,2.90
2022-12-27T13:26:24.949Z,2.75
2022-12-27T13:29:13.002Z,2.60
2022-12-27T13:31:47.658Z,2.95
2022-12-27T13:34:26.992Z,2.92
2022-12-27T13:37:10.202Z,2.55
2022-12-27T13:39:46.254Z,2.58
2022-12-27T13:42:41.795Z,2.70
2022-12-27T13:45:23.724Z,2.45
2022-12-27T13:48:12.806Z,2.80
2022-12-27T13:51:04.784Z,2.88
2022-12-27T13:54:08.262Z,2.67
2022-12-27T13:56:57.741Z,2.70
2022-12-27T13:59:51.322Z,2.60
2022-12-27T14:02:52.442Z,2.33
2022-12-27T14:05:52.824Z,2.70
2022-12-27T14:08:33.237Z,3.13
2022-12-27T14:11:03.884Z,2.75
2022-12-27T14:13:37.179Z,3.10
2022-12-27T14:16:19.035Z,2.70
2022-12-27T14:19:03.071Z,2.92
2022-12-27T14:22:01.150Z,2.92
2022-12-27T14:24:56.279Z,2.92
2022-12-27T14:28:07.211Z,2.97
2022-12-27T14:31:10.205Z,2.92
2022-12-27T14:34:00.695Z,2.78
2022-12-27T14:37:00.555Z,3.03
2022-12-27T14:39:49.794Z,2.70
2022-12-27T14:42:46.359Z,2.83
2022-12-27T14:45:37.416Z,3.15
2022-12-27T14:48:31.345Z,3.15
2022-12-27T14:51:50.501Z,2.93
2022-12-27T14:54:31.221Z,2.90
2022-12-27T14:57:06.426Z,2.50
2022-12-27T14:59:45.031Z,2.78
2022-12-27T15:02:32.583Z,2.60
2022-12-27T15:05:25.034Z,2.80
2022-12-27T15:08:10.484Z,2.90
2022-12-27T15:10:52.183Z,2.88
2022-12-27T15:13:27.702Z,3.03
2022-12-27T15:16:03.277Z,2.72
2022-12-27T15:18:49.720Z,3.10
2022-12-27T15:21:25.493Z,2.83
2022-12-27T15:24:02.548Z,2.75
2022-12-27T15:26:37.577Z,2.83
2022-12-27T15:29:36.227Z,2.90
2022-12-27T15:32:14.732Z,2.40
2022-12-27T15:35:03.560Z,2.40
2022-12-27T15:37:54.761Z,2.50
2022-12-27T15:40:42.109Z,2.30
2022-12-27T15:43:25.038Z,2.50
2022-12-27T15:46:02.614Z,2.55
2022-12-27T15:48:53.328Z,2.58
2022-12-27T15:51:29.911Z,2.90
2022-12-27T15:54:16.900Z,2.95
2022-12-27T15:56:55.343Z,2.60
2022-12-27T15:59:39.072Z,2.97
2022-12-27T16:02:27.881Z,2.58
2022-12-27T16:04:59.058Z,2.88
2022-12-27T16:07:40.765Z,2.95
2022-12-27T16:10:36.250Z,2.58
2022-12-27T16:13:23.579Z,2.70
2022-12-27T16:15:55.465Z,3.00
2022-12-27T16:18:46.585Z,2.88
2022-12-27T16:21:19.507Z,3.00
2022-12-27T16:23:54.938Z,2.90
2022-12-27T16:26:26.728Z,2.92
2022-12-27T16:29:02.282Z,3.00
2022-12-27T16:31:33.777Z,3.00
2022-12-27T16:34:13.894Z,2.92
2022-12-27T16:36:47.662Z,2.70
2022-12-27T16:39:36.161Z,2.85
2022-12-27T16:42:08.389Z,3.00
2022-12-27T16:44:54.863Z,3.22
2022-12-27T16:47:38.927Z,3.15
2022-12-27T16:50:34.771Z,3.00
2022-12-27T16:53:22.089Z,2.80
2022-12-27T16:56:15.087Z,3.38
2022-12-27T16:58:44.845Z,3.13
2022-12-27T17:01:55.913Z,3.10
2022-12-27T17:05:00.413Z,2.88
2022-12-27T17:07:46.938Z,3.33
2022-12-27T17:10:34.828Z,3.20
2022-12-27T17:13:08.305Z,3.08
2022-12-27T17:15:37.912Z,3.22
2022-12-27T17:18:28.398Z,3.13
2022-12-27T17:21:07.111Z,2.92
2022-12-27T17:23:42.408Z,3.50
2022-12-27T17:26:34.543Z,3.10
2022-12-27T17:29:11.031Z,4.22
2022-12-27T17:31:46.812Z,3.22
2022-12-27T17:34:23.003Z,3.50
2022-12-27T17:37:00.481Z,4.85
2022-12-27T17:39:39.603Z,4.00
2022-12-27T17:42:27.263Z,3.90
2022-12-27T17:45:09.179Z,3.85
2022-12-27T17:48:00.117Z,4.07
2022-12-27T17:50:32.522Z,3.97
2022-12-27T17:53:28.084Z,4.00
2022-12-27T17:56:16.064Z,3.88
2022-12-27T17:58:45.629Z,4.10
2022-12-27T18:01:15.492Z,4.22
2022-12-27T18:03:47.679Z,4.15
2022-12-27T18:06:23.463Z,4.03
2022-12-27T18:08:53.159Z,3.97
2022-12-27T18:11:27.888Z,3.90
2022-12-27T18:13:59.192Z,4.25
2022-12-27T18:16:36.228Z,4.38
2022-12-27T18:19:06.156Z,4.32
2022-12-27T18:21:40.624Z,4.10
2022-12-27T18:24:20.635Z,4.45
2022-12-27T18:26:50.216Z,4.03
2022-12-27T18:29:19.823Z,4.25
2022-12-27T18:31:51.326Z,4.53
2022-12-27T18:34:26.417Z,3.60
2022-12-27T18:37:04.355Z,4.20
2022-12-27T18:39:35.972Z,3.95
2022-12-27T18:42:07.941Z,3.67
2022-12-27T18:44:45.444Z,4.72
2022-12-27T18:47:21.342Z,4.50
2022-12-27T18:49:55.918Z,4.30
2022-12-27T18:52:32.954Z,4.75
2022-12-27T18:55:09.779Z,4.72
2022-12-27T18:57:40.382Z,4.18
2022-12-27T19:00:19.584Z,4.38
2022-12-27T19:02:49.263Z,4.95
2022-12-27T19:05:31.257Z,4.43
2022-12-27T19:08:12.560Z,8.60
2022-12-27T19:10:49.539Z,4.60
2022-12-27T19:13:25.125Z,4.43
2022-12-27T19:15:55.435Z,4.40
2022-12-27T19:18:27.265Z,4.80
2022-12-27T19:20:59.373Z,5.18
2022-12-27T19:23:36.646Z,5.53
2022-12-27T19:26:09.885Z,4.53
2022-12-27T19:28:39.598Z,4.47
2022-12-27T19:31:21.903Z,4.95
2022-12-27T19:33:55.177Z,4.38
2022-12-27T19:36:27.809Z,5.00
2022-12-27T19:39:00.195Z,4.90
2022-12-27T19:41:30.049Z,6.93
2022-12-27T19:43:59.603Z,5.65
2022-12-27T19:46:31.338Z,4.25
2022-12-27T19:49:40.772Z,4.45
2022-12-27T19:51:50.636Z,5.00
2022-12-27T19:54:24.827Z,4.55
2022-12-27T19:59:25.511Z,4.50
2022-12-27T20:01:55.563Z,4.70
2022-12-27T20:04:25.220Z,4.65
2022-12-27T20:06:54.797Z,4.53
2022-12-27T20:09:26.934Z,4.50
2022-12-27T20:11:56.503Z,5.22
2022-12-27T20:14:26.073Z,4.85
2022-12-27T20:16:55.769Z,4.82
2022-12-27T20:19:25.365Z,4.82
2022-12-27T20:21:54.955Z,4.68
2022-12-27T20:24:27.185Z,4.78
2022-12-27T20:26:56.733Z,5.07
2022-12-27T20:29:27.516Z,4.93
2022-12-27T20:31:59.345Z,5.20
2022-12-27T20:34:28.939Z,4.75
2022-12-27T20:37:00.613Z,4.97
2022-12-27T20:39:33.157Z,5.05
2022-12-27T20:42:02.814Z,4.97
2022-12-27T20:44:32.425Z,4.88
2022-12-27T20:47:02.046Z,5.30
2022-12-27T20:49:31.662Z,4.82
2022-12-27T20:52:01.249Z,4.38
2022-12-27T20:54:33.553Z,4.55
2022-12-27T20:57:03.657Z,4.53
2022-12-27T20:59:33.206Z,4.60
2022-12-27T21:02:02.872Z,4.70
2022-12-27T21:04:32.553Z,4.32
2022-12-27T21:07:02.196Z,5.45
2022-12-27T21:09:34.357Z,4.38
2022-12-27T21:12:03.922Z,4.90
2022-12-27T21:14:33.825Z,5.18
2022-12-27T21:17:03.686Z,4.50
2022-12-27T21:19:33.572Z,4.60
2022-12-27T21:22:03.154Z,4.50
2022-12-27T21:24:35.351Z,3.75
2022-12-27T21:27:04.916Z,4.00
2022-12-27T21:29:34.502Z,4.10
2022-12-27T21:32:04.160Z,4.00
2022-12-27T21:34:34.983Z,3.72
2022-12-27T21:37:08.693Z,4.20
2022-12-27T21:39:43.729Z,4.25
2022-12-27T21:42:14.506Z,3.90
2022-12-27T21:44:44.076Z,4.20
2022-12-27T21:47:13.681Z,4.60
2022-12-27T21:49:43.232Z,4.18
2022-12-27T21:52:12.801Z,4.30
2022-12-27T21:54:44.921Z,4.53
2022-12-27T21:57:14.473Z,3.70
2022-12-27T21:59:44.026Z,4.18
2022-12-27T22:02:13.762Z,3.95
2022-12-27T22:04:43.429Z,3.47
2022-12-27T22:07:13.118Z,3.78
2022-12-27T22:09:45.252Z,3.53
2022-12-27T22:12:14.813Z,3.63
2022-12-27T22:14:44.383Z,3.45
2022-12-27T22:17:13.936Z,3.90
2022-12-27T22:19:43.493Z,4.03
2022-12-27T22:22:13.014Z,3.95
2022-12-27T22:24:45.315Z,3.97
2022-12-27T22:27:14.879Z,4.18
2022-12-27T22:29:44.450Z,3.63
2022-12-27T22:32:14.282Z,3.90
2022-12-27T22:34:44.241Z,4.13
2022-12-27T22:37:13.767Z,3.80
2022-12-27T22:39:45.936Z,3.80
2022-12-27T22:42:15.749Z,3.97
2022-12-27T22:44:45.323Z,3.80
2022-12-27T22:47:26.405Z,3.80
2022-12-27T22:49:57.130Z,3.60
2022-12-27T22:52:26.722Z,4.22
2022-12-27T22:55:04.442Z,3.70
2022-12-27T22:57:36.854Z,4.38
2022-12-27T23:00:09.461Z,4.00
2022-12-27T23:02:39.192Z,3.72
2022-12-27T23:05:09.867Z,3.65
2022-12-27T23:08:05.578Z,3.25
2022-12-27T23:10:31.777Z,3.38
2022-12-27T23:13:01.311Z,3.60
2022-12-27T23:15:30.856Z,3.45
2022-12-27T23:18:00.821Z,3.58
2022-12-27T23:20:30.366Z,3.33
2022-12-27T23:22:59.974Z,3.50
2022-12-27T23:25:32.093Z,3.35
2022-12-27T23:28:02.120Z,3.35
2022-12-27T23:30:31.664Z,3.22
2022-12-27T23:33:01.285Z,3.47
2022-12-27T23:35:30.843Z,3.30
2022-12-27T23:38:00.405Z,3.85
2022-12-27T23:40:32.643Z,2.90
2022-12-27T23:43:18.714Z,3.15
2022-12-27T23:45:51.964Z,3.53
2022-12-27T23:48:21.518Z,3.40
2022-12-27T23:50:51.079Z,2.97
2022-12-27T23:53:21.567Z,3.47
2022-12-27T23:56:01.078Z,3.38
2022-12-27T23:58:30.902Z,3.40
